createdAt,value
2023-05-14T00:02:35.502Z,31.20
2023-05-14T00:05:37.079Z,30.63
2023-05-14T00:08:38.620Z,30.35
2023-05-14T00:11:40.434Z,35.50
2023-05-14T00:14:42.166Z,32.08
2023-05-14T00:17:43.830Z,29.10
2023-05-14T00:20:45.530Z,23.70
2023-05-14T00:23:47.105Z,19.42
2023-05-14T00:26:49.790Z,23.55
2023-05-14T00:29:51.720Z,21.67
2023-05-14T00:32:53.295Z,18.63
2023-05-14T00:35:54.899Z,19.40
2023-05-14T00:38:56.457Z,27.55
2023-05-14T00:41:58.169Z,21.90
2023-05-14T00:44:59.832Z,30.63
2023-05-14T00:48:01.561Z,28.20
2023-05-14T00:51:03.402Z,24.17
2023-05-14T00:54:05.396Z,25.35
2023-05-14T00:57:07.255Z,24.38
2023-05-14T01:00:09.369Z,22.77
2023-05-14T01:03:11.051Z,18.75
2023-05-14T01:06:18.335Z,20.90
2023-05-14T01:09:26.408Z,25.40
2023-05-14T01:12:40.187Z,19.98
2023-05-14T01:15:44.074Z,25.67
2023-05-14T01:18:48.379Z,25.63
2023-05-14T01:21:50.048Z,27.85
2023-05-14T01:24:51.704Z,20.45
2023-05-14T01:28:03.116Z,23.77
2023-05-14T01:31:11.864Z,23.05
2023-05-14T01:34:14.509Z,24.65
2023-05-14T01:37:16.959Z,20.67
2023-05-14T01:40:19.601Z,20.60
2023-05-14T01:43:22.543Z,23.75
2023-05-14T01:46:25.071Z,22.38
2023-05-14T01:49:26.642Z,27.90
2023-05-14T01:52:28.216Z,23.85
2023-05-14T01:55:29.785Z,24.27
2023-05-14T01:58:31.341Z,26.95
2023-05-14T02:01:33.821Z,26.52
2023-05-14T02:04:35.594Z,25.05
2023-05-14T02:07:37.249Z,30.75
2023-05-14T02:10:38.785Z,24.17
2023-05-14T02:13:40.521Z,39.13
2023-05-14T02:16:42.123Z,31.35
2023-05-14T02:19:46.240Z,33.53
2023-05-14T02:22:48.209Z,31.50
2023-05-14T02:25:49.738Z,30.00
2023-05-14T02:28:51.321Z,26.95
2023-05-14T02:31:53.059Z,31.85
2023-05-14T02:34:54.683Z,28.02
2023-05-14T02:37:56.310Z,31.90
2023-05-14T02:40:57.853Z,33.90
2023-05-14T02:43:59.499Z,26.65
2023-05-14T02:47:01.138Z,32.88
2023-05-14T02:50:04.773Z,34.47
2023-05-14T02:53:06.335Z,29.58
2023-05-14T02:56:08.083Z,29.98
2023-05-14T02:59:09.631Z,33.08
2023-05-14T03:02:11.787Z,32.63
2023-05-14T03:05:13.914Z,35.70
2023-05-14T03:08:15.465Z,33.95
2023-05-14T03:11:17.147Z,30.45
2023-05-14T03:14:18.688Z,26.63
2023-05-14T03:17:20.397Z,27.75
2023-05-14T03:20:24.557Z,32.03
2023-05-14T03:23:26.250Z,33.85
2023-05-14T03:26:27.819Z,29.25
2023-05-14T03:29:29.553Z,30.17
2023-05-14T03:32:31.676Z,31.52
2023-05-14T03:35:33.640Z,33.83
2023-05-14T03:38:35.238Z,28.38
2023-05-14T03:41:37.642Z,27.48
2023-05-14T03:44:39.254Z,28.15
2023-05-14T03:47:41.334Z,28.50
2023-05-14T03:50:42.960Z,27.10
2023-05-14T03:53:44.506Z,29.55
2023-05-14T03:56:46.098Z,28.00
2023-05-14T03:59:47.943Z,25.30
2023-05-14T04:02:49.552Z,31.42
2023-05-14T04:05:51.465Z,27.35
2023-05-14T04:08:53.620Z,30.90
2023-05-14T04:11:55.167Z,29.25
2023-05-14T04:14:58.136Z,30.02
2023-05-14T04:17:59.759Z,30.27
2023-05-14T04:21:02.494Z,28.55
2023-05-14T04:24:04.296Z,30.20
2023-05-14T04:27:06.808Z,28.48
2023-05-14T04:30:09.299Z,36.63
2023-05-14T04:33:10.911Z,27.90
2023-05-14T04:36:12.651Z,29.20
2023-05-14T04:39:14.880Z,31.08
2023-05-14T04:42:16.440Z,32.33
2023-05-14T04:45:18.019Z,27.92
2023-05-14T04:48:19.579Z,32.97
2023-05-14T04:51:21.121Z,33.33
2023-05-14T04:54:22.845Z,32.78
2023-05-14T04:57:24.489Z,32.67
2023-05-14T05:00:26.335Z,30.25
2023-05-14T05:03:28.260Z,30.25
2023-05-14T05:06:30.000Z,32.03
2023-05-14T05:09:31.982Z,31.75
2023-05-14T05:12:35.206Z,31.75
2023-05-14T05:15:36.954Z,31.48
2023-05-14T05:18:39.091Z,33.67
2023-05-14T05:21:40.906Z,32.15
2023-05-14T05:24:42.653Z,31.65
2023-05-14T05:27:44.202Z,30.98
2023-05-14T05:30:45.833Z,33.53
2023-05-14T05:33:47.586Z,30.38
2023-05-14T05:36:49.145Z,32.40
2023-05-14T05:39:50.702Z,30.65
2023-05-14T05:42:52.249Z,35.03
2023-05-14T05:45:53.993Z,36.63
2023-05-14T05:48:55.667Z,34.33
2023-05-14T05:51:57.459Z,29.52
2023-05-14T05:54:59.020Z,33.10
2023-05-14T05:58:00.560Z,25.25
2023-05-14T06:01:02.321Z,26.58
2023-05-14T06:04:06.100Z,33.78
2023-05-14T06:07:07.671Z,25.02
2023-05-14T06:10:09.331Z,24.73
2023-05-14T06:13:11.346Z,27.75
2023-05-14T06:16:12.910Z,25.63
2023-05-14T06:19:14.651Z,23.80
2023-05-14T06:22:16.205Z,23.25
2023-05-14T06:25:18.270Z,25.83
2023-05-14T06:28:19.934Z,23.50
2023-05-14T06:31:21.572Z,21.75
2023-05-14T06:34:23.139Z,18.83
2023-05-14T06:37:24.807Z,20.27
2023-05-14T06:40:26.533Z,16.95
2023-05-14T06:43:28.495Z,19.67
2023-05-14T06:46:30.061Z,18.38
2023-05-14T06:49:31.673Z,11.32
2023-05-14T06:52:33.600Z,14.43
2023-05-14T06:55:35.856Z,14.82
2023-05-14T06:58:37.603Z,14.13
2023-05-14T07:01:39.273Z,11.15
2023-05-14T07:04:41.136Z,15.32
2023-05-14T07:07:42.742Z,14.43
2023-05-14T07:10:44.339Z,10.43
2023-05-14T07:13:45.941Z,11.30
2023-05-14T07:16:47.714Z,11.20
2023-05-14T07:19:49.426Z,12.32
2023-05-14T07:22:52.449Z,10.70
2023-05-14T07:25:54.272Z,9.82
2023-05-14T07:28:55.787Z,8.88
2023-05-14T07:31:57.346Z,12.52
2023-05-14T07:34:59.058Z,15.75
2023-05-14T07:38:00.732Z,10.00
2023-05-14T07:41:02.726Z,8.95
2023-05-14T07:44:04.960Z,12.13
2023-05-14T07:47:08.538Z,9.27
2023-05-14T07:50:10.748Z,16.67
2023-05-14T07:53:12.415Z,13.85
2023-05-14T07:56:13.944Z,10.57
2023-05-14T07:59:15.600Z,14.13
2023-05-14T08:02:17.597Z,11.35
2023-05-14T08:05:19.456Z,11.05
2023-05-14T08:08:21.538Z,10.18
2023-05-14T08:11:23.160Z,11.90
2023-05-14T08:14:24.793Z,8.05
2023-05-14T08:17:26.360Z,11.55
2023-05-14T08:20:28.164Z,8.80
2023-05-14T08:23:29.778Z,12.80
2023-05-14T08:26:31.681Z,10.25
2023-05-14T08:29:33.216Z,10.20
2023-05-14T08:32:34.849Z,8.43
2023-05-14T08:35:36.485Z,8.30
2023-05-14T08:38:38.000Z,9.63
2023-05-14T08:41:40.494Z,8.73
2023-05-14T08:44:49.963Z,9.07
2023-05-14T08:47:51.931Z,10.50
2023-05-14T08:50:53.603Z,10.32
2023-05-14T08:53:55.705Z,6.10
2023-05-14T08:56:57.588Z,8.85
2023-05-14T08:59:59.800Z,10.95
2023-05-14T09:03:02.145Z,12.18
2023-05-14T09:06:05.849Z,7.25
2023-05-14T09:09:07.654Z,7.97
2023-05-14T09:12:09.890Z,9.85
2023-05-14T09:15:11.705Z,6.07
2023-05-14T09:18:13.759Z,11.23
2023-05-14T09:21:15.787Z,10.43
2023-05-14T09:24:24.933Z,5.35
2023-05-14T09:27:30.228Z,7.40
2023-05-14T09:30:32.136Z,9.20
2023-05-14T09:33:36.824Z,9.60
2023-05-14T09:36:38.541Z,9.35
2023-05-14T09:39:40.379Z,11.98
2023-05-14T09:42:42.094Z,8.05
2023-05-14T09:45:43.719Z,5.75
2023-05-14T09:48:46.312Z,7.30
2023-05-14T09:51:51.263Z,4.35
2023-05-14T09:54:53.252Z,8.50
2023-05-14T09:57:54.872Z,7.38
2023-05-14T10:00:58.054Z,7.10
2023-05-14T10:04:00.348Z,8.77
2023-05-14T10:07:03.236Z,7.72
2023-05-14T10:10:08.493Z,8.25
2023-05-14T10:13:15.104Z,6.57
2023-05-14T10:16:21.810Z,4.75
2023-05-14T10:19:25.216Z,7.30
2023-05-14T10:22:31.805Z,6.97
2023-05-14T10:25:37.850Z,6.90
2023-05-14T10:28:39.798Z,6.32
2023-05-14T10:31:55.387Z,5.97
2023-05-14T10:34:58.228Z,6.20
2023-05-14T10:37:59.760Z,8.07
2023-05-14T10:41:02.544Z,12.45
2023-05-14T10:44:10.026Z,9.65
2023-05-14T10:47:11.660Z,5.85
2023-05-14T10:50:15.398Z,4.60
2023-05-14T10:53:17.237Z,7.60
2023-05-14T10:56:19.284Z,4.85
2023-05-14T10:59:27.368Z,8.15
2023-05-14T11:02:31.674Z,6.57
2023-05-14T11:05:37.047Z,6.05
2023-05-14T11:08:39.621Z,4.95
2023-05-14T11:11:41.238Z,4.30
2023-05-14T11:14:42.909Z,5.35
2023-05-14T11:17:45.753Z,6.57
2023-05-14T11:20:47.546Z,8.98
2023-05-14T11:23:49.185Z,6.38
2023-05-14T11:26:50.782Z,7.00
2023-05-14T11:29:52.666Z,9.38
2023-05-14T11:32:56.145Z,12.73
2023-05-14T11:35:57.708Z,10.57
2023-05-14T11:38:59.308Z,9.75
2023-05-14T11:42:03.390Z,6.10
2023-05-14T11:45:05.986Z,5.07
2023-05-14T11:48:14.920Z,7.40
2023-05-14T11:51:16.671Z,8.43
2023-05-14T11:54:18.404Z,6.25
2023-05-14T11:57:21.458Z,7.57
2023-05-14T12:00:24.423Z,7.75
2023-05-14T12:03:29.478Z,7.75
2023-05-14T12:06:32.469Z,9.98
2023-05-14T12:09:43.029Z,8.23
2023-05-14T12:12:48.314Z,10.20
2023-05-14T12:15:58.332Z,9.50
2023-05-14T12:19:01.992Z,4.75
2023-05-14T12:22:03.657Z,6.75
2023-05-14T12:25:13.201Z,7.45
2023-05-14T12:28:16.024Z,5.43
2023-05-14T12:31:19.260Z,8.38
2023-05-14T12:34:20.837Z,5.10
2023-05-14T12:37:22.386Z,6.80
2023-05-14T12:40:24.469Z,9.02
2023-05-14T12:43:31.348Z,4.07
2023-05-14T12:46:34.028Z,5.40
2023-05-14T12:49:36.059Z,7.05
2023-05-14T12:52:39.747Z,7.00
2023-05-14T12:55:41.644Z,6.80
2023-05-14T12:58:43.304Z,5.63
2023-05-14T13:01:44.829Z,5.40
2023-05-14T13:04:46.442Z,3.92
2023-05-14T13:07:48.076Z,5.75
2023-05-14T13:10:50.594Z,5.68
2023-05-14T13:13:52.132Z,6.82
2023-05-14T13:16:53.749Z,6.28
2023-05-14T13:19:55.477Z,7.70
2023-05-14T13:22:57.391Z,6.70
2023-05-14T13:25:58.974Z,5.00
2023-05-14T13:29:00.656Z,5.22
2023-05-14T13:32:02.220Z,3.97
2023-05-14T13:35:04.044Z,6.53
2023-05-14T13:38:05.851Z,8.27
2023-05-14T13:41:08.277Z,8.70
2023-05-14T13:44:09.999Z,6.00
2023-05-14T13:47:11.556Z,4.30
2023-05-14T13:50:13.827Z,7.00
2023-05-14T13:53:15.568Z,8.38
2023-05-14T13:56:17.157Z,8.20
2023-05-14T13:59:18.855Z,6.00
2023-05-14T14:02:20.533Z,7.35
2023-05-14T14:05:23.729Z,6.22
2023-05-14T14:08:25.543Z,8.68
2023-05-14T14:11:27.551Z,9.77
2023-05-14T14:14:29.093Z,5.57
2023-05-14T14:17:31.050Z,10.10
2023-05-14T14:20:32.867Z,5.45
2023-05-14T14:23:34.645Z,7.60
2023-05-14T14:26:36.388Z,4.13
2023-05-14T14:29:37.968Z,7.00
2023-05-14T14:32:39.542Z,3.78
2023-05-14T14:35:41.187Z,5.30
2023-05-14T14:38:42.789Z,5.50
2023-05-14T14:41:44.461Z,7.72
2023-05-14T14:44:45.978Z,8.38
2023-05-14T14:47:49.160Z,3.85
2023-05-14T14:50:51.845Z,5.25
2023-05-14T14:53:53.486Z,6.60
2023-05-14T14:56:55.034Z,6.25
2023-05-14T14:59:56.631Z,4.78
2023-05-14T15:02:58.319Z,5.18
2023-05-14T15:06:00.412Z,3.85
2023-05-14T15:09:02.377Z,8.65
2023-05-14T15:12:04.199Z,5.80
2023-05-14T15:15:06.709Z,7.63
2023-05-14T15:18:08.328Z,12.02
2023-05-14T15:21:09.895Z,6.13
2023-05-14T15:24:13.342Z,4.70
2023-05-14T15:27:14.874Z,8.27
2023-05-14T15:30:16.881Z,3.72
2023-05-14T15:33:19.215Z,7.70
2023-05-14T15:36:20.913Z,8.60
2023-05-14T15:39:25.588Z,8.85
2023-05-14T15:42:27.320Z,12.60
2023-05-14T15:45:28.896Z,6.32
2023-05-14T15:48:30.626Z,6.25
2023-05-14T15:51:32.613Z,4.40
2023-05-14T15:54:34.201Z,6.03
2023-05-14T15:57:35.827Z,4.25
2023-05-14T16:00:37.422Z,3.90
2023-05-14T16:03:39.483Z,8.98
2023-05-14T16:06:42.535Z,5.45
2023-05-14T16:09:44.108Z,2.92
2023-05-14T16:12:45.744Z,9.82
2023-05-14T16:15:47.413Z,5.88
2023-05-14T16:18:49.100Z,9.02
2023-05-14T16:21:50.963Z,7.28
2023-05-14T16:24:52.905Z,10.75
2023-05-14T16:27:54.507Z,7.07
2023-05-14T16:30:56.133Z,12.27
2023-05-14T16:33:58.531Z,11.43
2023-05-14T16:37:00.387Z,8.07
2023-05-14T16:40:02.084Z,16.63
2023-05-14T16:43:03.844Z,19.50
2023-05-14T16:46:06.272Z,12.25
2023-05-14T16:49:07.865Z,8.88
2023-05-14T16:52:09.457Z,12.35
2023-05-14T16:55:14.053Z,9.13
2023-05-14T16:58:15.561Z,8.70
2023-05-14T17:01:17.137Z,8.20
2023-05-14T17:04:18.762Z,11.30
2023-05-14T17:07:20.561Z,6.47
2023-05-14T17:10:22.218Z,13.75
2023-05-14T17:13:23.979Z,8.65
2023-05-14T17:16:25.900Z,11.05
2023-05-14T17:19:27.493Z,14.02
2023-05-14T17:22:29.174Z,12.90
2023-05-14T17:25:31.503Z,10.35
2023-05-14T17:28:33.387Z,12.25
2023-05-14T17:31:35.039Z,10.05
2023-05-14T17:34:36.651Z,12.15
2023-05-14T17:37:38.302Z,11.50
2023-05-14T17:40:40.770Z,7.80
2023-05-14T17:43:42.330Z,12.15
2023-05-14T17:46:45.126Z,9.23
2023-05-14T17:49:51.030Z,10.18
2023-05-14T17:52:52.910Z,10.68
2023-05-14T17:55:54.673Z,8.52
2023-05-14T17:58:56.338Z,9.32
2023-05-14T18:01:57.962Z,12.93
2023-05-14T18:05:00.238Z,9.40
2023-05-14T18:08:02.260Z,13.32
2023-05-14T18:11:03.883Z,12.27
2023-05-14T18:14:05.771Z,10.05
2023-05-14T18:17:07.472Z,11.20
2023-05-14T18:20:09.566Z,12.57
2023-05-14T18:23:11.125Z,11.48
2023-05-14T18:26:12.663Z,12.65
2023-05-14T18:29:14.424Z,13.68
2023-05-14T18:32:16.442Z,10.15
2023-05-14T18:35:18.194Z,11.13
2023-05-14T18:38:20.120Z,12.77
2023-05-14T18:41:21.908Z,18.85
2023-05-14T18:44:24.038Z,13.68
2023-05-14T18:47:25.881Z,13.25
2023-05-14T18:50:27.504Z,13.50
2023-05-14T18:53:29.545Z,10.88
2023-05-14T18:56:31.440Z,15.70
2023-05-14T18:59:33.086Z,18.05
2023-05-14T19:02:34.793Z,15.65
2023-05-14T19:05:36.440Z,10.70
2023-05-14T19:08:38.145Z,10.82
2023-05-14T19:11:42.384Z,10.20
2023-05-14T19:14:44.098Z,15.73
2023-05-14T19:17:46.021Z,15.23
2023-05-14T19:20:47.694Z,17.60
2023-05-14T19:23:49.223Z,12.95
2023-05-14T19:26:50.862Z,10.88
2023-05-14T19:29:52.469Z,11.57
2023-05-14T19:32:54.158Z,17.67
2023-05-14T19:35:55.986Z,13.20
2023-05-14T19:38:58.158Z,21.10
2023-05-14T19:41:59.829Z,11.52
2023-05-14T19:45:01.386Z,18.92
2023-05-14T19:48:03.179Z,17.98
2023-05-14T19:51:04.790Z,16.73
2023-05-14T19:54:06.644Z,15.70
2023-05-14T19:57:09.310Z,13.95
2023-05-14T20:00:11.795Z,13.70
2023-05-14T20:03:13.476Z,14.10
2023-05-14T20:06:15.514Z,13.48
2023-05-14T20:09:17.090Z,13.90
2023-05-14T20:12:18.704Z,15.35
2023-05-14T20:15:20.706Z,15.43
2023-05-14T20:18:22.278Z,12.60
2023-05-14T20:21:23.929Z,16.90
2023-05-14T20:24:25.630Z,25.42
2023-05-14T20:27:27.219Z,19.20
2023-05-14T20:30:30.050Z,16.15
2023-05-14T20:33:31.624Z,12.20
2023-05-14T20:36:33.217Z,10.85
2023-05-14T20:39:35.154Z,12.07
2023-05-14T20:42:36.714Z,14.48
2023-05-14T20:45:39.012Z,19.00
2023-05-14T20:48:40.624Z,16.35
2023-05-14T20:51:42.227Z,18.15
2023-05-14T20:54:44.194Z,18.10
2023-05-14T20:57:46.000Z,15.50
2023-05-14T21:00:47.629Z,17.98
2023-05-14T21:03:49.703Z,12.88
2023-05-14T21:06:51.907Z,12.38
2023-05-14T21:09:53.440Z,17.40
2023-05-14T21:12:54.998Z,15.18
2023-05-14T21:15:56.771Z,13.32
2023-05-14T21:18:58.446Z,15.38
2023-05-14T21:22:00.117Z,15.82
2023-05-14T21:25:01.684Z,15.02
2023-05-14T21:28:03.384Z,13.98
2023-05-14T21:31:05.252Z,12.75
2023-05-14T21:34:06.810Z,12.48
2023-05-14T21:37:08.563Z,14.38
2023-05-14T21:40:12.078Z,15.13
2023-05-14T21:43:13.919Z,13.32
2023-05-14T21:46:16.174Z,13.73
2023-05-14T21:49:17.793Z,17.02
2023-05-14T21:52:19.348Z,19.35
2023-05-14T21:55:22.822Z,14.55
2023-05-14T21:58:24.668Z,17.23
2023-05-14T22:01:26.306Z,19.77
2023-05-14T22:04:27.993Z,18.30
2023-05-14T22:07:29.529Z,20.42
2023-05-14T22:10:31.294Z,16.80
2023-05-14T22:13:34.929Z,19.13
2023-05-14T22:16:37.683Z,15.38
2023-05-14T22:19:39.235Z,15.35
2023-05-14T22:22:40.941Z,16.00
2023-05-14T22:25:42.605Z,16.90
2023-05-14T22:28:44.452Z,19.75
2023-05-14T22:31:46.299Z,14.98
2023-05-14T22:34:47.938Z,20.67
2023-05-14T22:37:49.519Z,19.13
2023-05-14T22:40:51.083Z,14.43
2023-05-14T22:43:52.624Z,16.50
2023-05-14T22:46:54.161Z,13.65
2023-05-14T22:49:55.711Z,11.93
2023-05-14T22:52:57.244Z,14.40
2023-05-14T22:55:58.917Z,15.13
2023-05-14T22:59:01.681Z,16.83
2023-05-14T23:02:03.291Z,17.90
2023-05-14T23:05:06.073Z,17.08
2023-05-14T23:08:07.695Z,16.85
2023-05-14T23:11:09.243Z,20.73
2023-05-14T23:14:10.893Z,24.02
2023-05-14T23:17:12.547Z,24.30
2023-05-14T23:20:14.122Z,20.38
2023-05-14T23:23:15.681Z,30.35
2023-05-14T23:26:17.252Z,19.20
2023-05-14T23:29:18.794Z,22.55
2023-05-14T23:32:20.304Z,29.88
2023-05-14T23:35:22.035Z,25.10
2023-05-14T23:38:23.933Z,32.20
2023-05-14T23:41:26.046Z,25.63
2023-05-14T23:44:27.638Z,29.58
2023-05-14T23:47:29.304Z,29.35
2023-05-14T23:50:31.395Z,31.80
2023-05-14T23:53:32.904Z,25.27
2023-05-14T23:56:34.575Z,31.17
2023-05-14T23:59:36.161Z,38.03
